sensor_id;sensor_type;location;lat;lon;timestamp;temperature;humidity
78647;DHT22;67961;43.460;3.762;2023-04-01T00:01:48;12.80;55.50
78647;DHT22;67961;43.460;3.762;2023-04-01T00:04:13;12.80;54.60
78647;DHT22;67961;43.460;3.762;2023-04-01T00:06:39;12.80;55.00
78647;DHT22;67961;43.460;3.762;2023-04-01T00:09:04;12.80;55.00
78647;DHT22;67961;43.460;3.762;2023-04-01T00:11:30;12.80;54.90
78647;DHT22;67961;43.460;3.762;2023-04-01T00:13:56;12.80;55.00
78647;DHT22;67961;43.460;3.762;2023-04-01T00:16:22;12.80;55.40
78647;DHT22;67961;43.460;3.762;2023-04-01T00:18:48;12.80;55.00
78647;DHT22;67961;43.460;3.762;2023-04-01T00:21:15;12.80;55.00
78647;DHT22;67961;43.460;3.762;2023-04-01T00:23:41;12.90;54.70
78647;DHT22;67961;43.460;3.762;2023-04-01T00:26:07;12.90;54.30
78647;DHT22;67961;43.460;3.762;2023-04-01T00:28:34;13.00;54.60
78647;DHT22;67961;43.460;3.762;2023-04-01T00:31:07;13.10;54.30
78647;DHT22;67961;43.460;3.762;2023-04-01T00:33:33;13.10;54.10
78647;DHT22;67961;43.460;3.762;2023-04-01T00:36:12;13.10;54.10
78647;DHT22;67961;43.460;3.762;2023-04-01T00:38:39;13.30;54.40
78647;DHT22;67961;43.460;3.762;2023-04-01T00:41:06;13.30;54.40
78647;DHT22;67961;43.460;3.762;2023-04-01T00:43:32;13.30;54.50
78647;DHT22;67961;43.460;3.762;2023-04-01T00:45:58;13.30;54.70
78647;DHT22;67961;43.460;3.762;2023-04-01T00:48:34;13.30;54.50
78647;DHT22;67961;43.460;3.762;2023-04-01T00:51:06;13.30;54.30
78647;DHT22;67961;43.460;3.762;2023-04-01T00:53:34;13.30;54.70
78647;DHT22;67961;43.460;3.762;2023-04-01T00:56:05;13.30;54.20
78647;DHT22;67961;43.460;3.762;2023-04-01T00:58:37;13.30;54.30
78647;DHT22;67961;43.460;3.762;2023-04-01T01:01:04;13.40;54.50
78647;DHT22;67961;43.460;3.762;2023-04-01T01:03:31;13.30;54.70
78647;DHT22;67961;43.460;3.762;2023-04-01T01:09:03;13.30;54.50
78647;DHT22;67961;43.460;3.762;2023-04-01T01:11:51;13.30;54.80
78647;DHT22;67961;43.460;3.762;2023-04-01T01:20:24;13.20;55.10
78647;DHT22;67961;43.460;3.762;2023-04-01T01:23:12;13.10;55.10
78647;DHT22;67961;43.460;3.762;2023-04-01T01:36:39;13.00;55.30
78647;DHT22;67961;43.460;3.762;2023-04-01T01:39:08;13.00;55.40
78647;DHT22;67961;43.460;3.762;2023-04-01T01:41:36;13.00;54.80
78647;DHT22;67961;43.460;3.762;2023-04-01T01:44:07;13.00;55.00
78647;DHT22;67961;43.460;3.762;2023-04-01T01:46:34;13.00;54.80
78647;DHT22;67961;43.460;3.762;2023-04-01T01:49:02;13.00;54.70
78647;DHT22;67961;43.460;3.762;2023-04-01T01:51:30;13.00;54.70
78647;DHT22;67961;43.460;3.762;2023-04-01T01:53:56;13.00;54.70
78647;DHT22;67961;43.460;3.762;2023-04-01T01:56:23;13.00;54.80
78647;DHT22;67961;43.460;3.762;2023-04-01T01:58:56;13.00;55.00
78647;DHT22;67961;43.460;3.762;2023-04-01T02:01:27;13.00;54.70
78647;DHT22;67961;43.460;3.762;2023-04-01T02:03:54;13.00;55.00
78647;DHT22;67961;43.460;3.762;2023-04-01T02:06:26;13.00;54.70
78647;DHT22;67961;43.460;3.762;2023-04-01T02:14:41;13.10;54.40
78647;DHT22;67961;43.460;3.762;2023-04-01T02:17:14;13.10;54.50
78647;DHT22;67961;43.460;3.762;2023-04-01T02:22:14;13.10;54.50
78647;DHT22;67961;43.460;3.762;2023-04-01T02:24:42;13.00;54.70
78647;DHT22;67961;43.460;3.762;2023-04-01T02:27:11;13.00;54.90
78647;DHT22;67961;43.460;3.762;2023-04-01T02:29:37;13.10;54.90
78647;DHT22;67961;43.460;3.762;2023-04-01T02:32:05;13.00;55.20
78647;DHT22;67961;43.460;3.762;2023-04-01T02:34:31;13.00;55.20
78647;DHT22;67961;43.460;3.762;2023-04-01T02:36:57;12.90;55.50
78647;DHT22;67961;43.460;3.762;2023-04-01T02:39:23;12.90;56.00
78647;DHT22;67961;43.460;3.762;2023-04-01T02:41:51;12.90;55.60
78647;DHT22;67961;43.460;3.762;2023-04-01T02:44:16;12.80;55.80
78647;DHT22;67961;43.460;3.762;2023-04-01T02:46:42;12.80;55.90
78647;DHT22;67961;43.460;3.762;2023-04-01T02:49:08;12.70;56.10
78647;DHT22;67961;43.460;3.762;2023-04-01T02:51:34;12.70;56.00
78647;DHT22;67961;43.460;3.762;2023-04-01T02:53:59;12.70;55.90
78647;DHT22;67961;43.460;3.762;2023-04-01T02:56:25;12.80;56.10
78647;DHT22;67961;43.460;3.762;2023-04-01T02:58:51;12.80;56.40
78647;DHT22;67961;43.460;3.762;2023-04-01T03:01:17;12.70;56.40
78647;DHT22;67961;43.460;3.762;2023-04-01T03:03:43;12.70;56.90
78647;DHT22;67961;43.460;3.762;2023-04-01T03:06:11;12.50;57.00
78647;DHT22;67961;43.460;3.762;2023-04-01T03:08:37;12.60;56.60
78647;DHT22;67961;43.460;3.762;2023-04-01T03:11:03;12.60;57.00
78647;DHT22;67961;43.460;3.762;2023-04-01T03:13:29;12.60;57.20
78647;DHT22;67961;43.460;3.762;2023-04-01T03:15:55;12.50;57.20
78647;DHT22;67961;43.460;3.762;2023-04-01T03:18:20;12.50;56.70
78647;DHT22;67961;43.460;3.762;2023-04-01T03:20:46;12.60;56.60
78647;DHT22;67961;43.460;3.762;2023-04-01T03:23:12;12.70;56.50
78647;DHT22;67961;43.460;3.762;2023-04-01T03:25:38;12.70;57.00
78647;DHT22;67961;43.460;3.762;2023-04-01T03:28:04;12.80;57.10
78647;DHT22;67961;43.460;3.762;2023-04-01T03:30:30;12.70;57.20
78647;DHT22;67961;43.460;3.762;2023-04-01T03:32:57;12.70;57.60
78647;DHT22;67961;43.460;3.762;2023-04-01T03:35:23;12.70;58.60
78647;DHT22;67961;43.460;3.762;2023-04-01T03:37:51;12.70;59.60
78647;DHT22;67961;43.460;3.762;2023-04-01T03:40:17;12.50;60.40
78647;DHT22;67961;43.460;3.762;2023-04-01T03:42:43;12.50;60.70
78647;DHT22;67961;43.460;3.762;2023-04-01T03:45:09;12.40;61.10
78647;DHT22;67961;43.460;3.762;2023-04-01T03:47:35;12.30;60.50
78647;DHT22;67961;43.460;3.762;2023-04-01T03:50:01;12.20;60.80
78647;DHT22;67961;43.460;3.762;2023-04-01T03:52:27;12.20;60.50
78647;DHT22;67961;43.460;3.762;2023-04-01T03:54:52;12.10;60.80
78647;DHT22;67961;43.460;3.762;2023-04-01T03:57:18;12.10;60.10
78647;DHT22;67961;43.460;3.762;2023-04-01T03:59:44;12.20;60.60
78647;DHT22;67961;43.460;3.762;2023-04-01T04:02:09;12.20;60.10
78647;DHT22;67961;43.460;3.762;2023-04-01T04:04:35;12.30;59.60
78647;DHT22;67961;43.460;3.762;2023-04-01T04:07:01;12.40;58.40
78647;DHT22;67961;43.460;3.762;2023-04-01T04:09:26;12.50;58.80
78647;DHT22;67961;43.460;3.762;2023-04-01T04:11:52;12.50;58.50
78647;DHT22;67961;43.460;3.762;2023-04-01T04:14:18;12.50;59.10
78647;DHT22;67961;43.460;3.762;2023-04-01T04:16:44;12.50;59.40
78647;DHT22;67961;43.460;3.762;2023-04-01T04:19:09;12.60;59.50
78647;DHT22;67961;43.460;3.762;2023-04-01T04:21:35;12.70;59.50
78647;DHT22;67961;43.460;3.762;2023-04-01T04:24:01;12.60;59.70
78647;DHT22;67961;43.460;3.762;2023-04-01T04:26:27;12.50;59.80
78647;DHT22;67961;43.460;3.762;2023-04-01T04:28:54;12.60;60.00
78647;DHT22;67961;43.460;3.762;2023-04-01T04:31:22;12.60;60.10
78647;DHT22;67961;43.460;3.762;2023-04-01T04:33:48;12.60;60.10
78647;DHT22;67961;43.460;3.762;2023-04-01T04:36:14;12.70;60.30
78647;DHT22;67961;43.460;3.762;2023-04-01T04:38:42;12.50;60.40
78647;DHT22;67961;43.460;3.762;2023-04-01T04:41:12;12.50;60.20
78647;DHT22;67961;43.460;3.762;2023-04-01T04:43:39;12.50;60.50
78647;DHT22;67961;43.460;3.762;2023-04-01T04:46:09;12.50;60.70
78647;DHT22;67961;43.460;3.762;2023-04-01T04:48:35;12.50;60.60
78647;DHT22;67961;43.460;3.762;2023-04-01T04:51:01;12.50;60.60
78647;DHT22;67961;43.460;3.762;2023-04-01T04:53:27;12.50;60.50
78647;DHT22;67961;43.460;3.762;2023-04-01T04:55:53;12.50;60.50
78647;DHT22;67961;43.460;3.762;2023-04-01T04:58:19;12.50;60.40
78647;DHT22;67961;43.460;3.762;2023-04-01T05:00:45;12.50;60.20
78647;DHT22;67961;43.460;3.762;2023-04-01T05:03:12;12.50;59.90
78647;DHT22;67961;43.460;3.762;2023-04-01T05:05:38;12.50;60.10
78647;DHT22;67961;43.460;3.762;2023-04-01T05:08:05;12.50;60.40
78647;DHT22;67961;43.460;3.762;2023-04-01T05:10:31;12.50;60.40
78647;DHT22;67961;43.460;3.762;2023-04-01T05:12:57;12.50;60.30
78647;DHT22;67961;43.460;3.762;2023-04-01T05:15:23;12.30;60.80
78647;DHT22;67961;43.460;3.762;2023-04-01T05:17:49;12.30;60.60
78647;DHT22;67961;43.460;3.762;2023-04-01T05:20:15;12.20;61.00
78647;DHT22;67961;43.460;3.762;2023-04-01T05:22:41;12.20;60.80
78647;DHT22;67961;43.460;3.762;2023-04-01T05:25:07;12.20;60.90
78647;DHT22;67961;43.460;3.762;2023-04-01T05:27:33;12.20;60.50
78647;DHT22;67961;43.460;3.762;2023-04-01T05:30:01;12.20;60.30
78647;DHT22;67961;43.460;3.762;2023-04-01T05:32:27;12.10;59.70
78647;DHT22;67961;43.460;3.762;2023-04-01T05:34:53;12.10;59.50
78647;DHT22;67961;43.460;3.762;2023-04-01T05:37:20;12.10;59.80
78647;DHT22;67961;43.460;3.762;2023-04-01T05:39:45;12.20;59.10
78647;DHT22;67961;43.460;3.762;2023-04-01T05:42:11;12.20;59.10
78647;DHT22;67961;43.460;3.762;2023-04-01T05:44:37;12.20;59.00
78647;DHT22;67961;43.460;3.762;2023-04-01T05:47:04;12.20;58.50
78647;DHT22;67961;43.460;3.762;2023-04-01T05:49:30;12.30;57.60
78647;DHT22;67961;43.460;3.762;2023-04-01T05:51:56;12.40;57.80
78647;DHT22;67961;43.460;3.762;2023-04-01T05:54:22;12.40;57.80
78647;DHT22;67961;43.460;3.762;2023-04-01T05:56:47;12.50;57.80
78647;DHT22;67961;43.460;3.762;2023-04-01T05:59:13;12.50;57.80
78647;DHT22;67961;43.460;3.762;2023-04-01T06:01:39;12.50;58.00
78647;DHT22;67961;43.460;3.762;2023-04-01T06:04:05;12.50;58.30
78647;DHT22;67961;43.460;3.762;2023-04-01T06:06:32;12.50;58.50
78647;DHT22;67961;43.460;3.762;2023-04-01T06:09:06;12.50;58.70
78647;DHT22;67961;43.460;3.762;2023-04-01T06:14:26;12.40;58.80
78647;DHT22;67961;43.460;3.762;2023-04-01T06:18:13;12.30;59.10
78647;DHT22;67961;43.460;3.762;2023-04-01T06:20:12;12.20;59.00
78647;DHT22;67961;43.460;3.762;2023-04-01T06:25:59;12.10;59.80
78647;DHT22;67961;43.460;3.762;2023-04-01T06:34:12;12.20;59.10
78647;DHT22;67961;43.460;3.762;2023-04-01T06:39:16;12.20;59.70
78647;DHT22;67961;43.460;3.762;2023-04-01T06:55:42;12.00;61.00
78647;DHT22;67961;43.460;3.762;2023-04-01T06:58:26;12.10;61.00
78647;DHT22;67961;43.460;3.762;2023-04-01T07:00:56;12.00;60.30
78647;DHT22;67961;43.460;3.762;2023-04-01T07:03:36;12.10;60.30
78647;DHT22;67961;43.460;3.762;2023-04-01T07:06:08;12.20;58.90
78647;DHT22;67961;43.460;3.762;2023-04-01T07:08:38;12.30;58.80
78647;DHT22;67961;43.460;3.762;2023-04-01T07:11:24;12.40;59.20
78647;DHT22;67961;43.460;3.762;2023-04-01T07:14:00;12.50;58.50
78647;DHT22;67961;43.460;3.762;2023-04-01T07:16:30;12.50;58.50
78647;DHT22;67961;43.460;3.762;2023-04-01T07:19:16;12.50;58.80
78647;DHT22;67961;43.460;3.762;2023-04-01T07:21:45;12.60;58.70
78647;DHT22;67961;43.460;3.762;2023-04-01T07:24:33;12.70;58.30
78647;DHT22;67961;43.460;3.762;2023-04-01T07:27:00;12.80;58.50
78647;DHT22;67961;43.460;3.762;2023-04-01T07:29:26;12.90;58.30
78647;DHT22;67961;43.460;3.762;2023-04-01T07:34:27;13.20;58.40
78647;DHT22;67961;43.460;3.762;2023-04-01T07:42:24;13.30;58.30
78647;DHT22;67961;43.460;3.762;2023-04-01T07:45:12;13.20;58.70
78647;DHT22;67961;43.460;3.762;2023-04-01T07:47:44;13.30;59.10
78647;DHT22;67961;43.460;3.762;2023-04-01T07:50:27;13.30;59.30
78647;DHT22;67961;43.460;3.762;2023-04-01T07:56:01;13.50;59.10
78647;DHT22;67961;43.460;3.762;2023-04-01T07:58:36;13.60;58.90
78647;DHT22;67961;43.460;3.762;2023-04-01T08:06:37;13.90;59.30
78647;DHT22;67961;43.460;3.762;2023-04-01T08:09:28;13.90;59.00
78647;DHT22;67961;43.460;3.762;2023-04-01T08:12:09;13.90;58.40
78647;DHT22;67961;43.460;3.762;2023-04-01T08:14:59;13.90;58.00
78647;DHT22;67961;43.460;3.762;2023-04-01T08:20:48;13.70;56.90
78647;DHT22;67961;43.460;3.762;2023-04-01T08:23:21;13.60;57.80
78647;DHT22;67961;43.460;3.762;2023-04-01T08:28:41;13.50;60.40
78647;DHT22;67961;43.460;3.762;2023-04-01T08:31:21;13.50;61.00
78647;DHT22;67961;43.460;3.762;2023-04-01T08:33:49;13.50;60.80
78647;DHT22;67961;43.460;3.762;2023-04-01T08:41:40;14.10;57.60
78647;DHT22;67961;43.460;3.762;2023-04-01T08:47:19;14.80;56.60
78647;DHT22;67961;43.460;3.762;2023-04-01T08:49:56;15.40;55.10
78647;DHT22;67961;43.460;3.762;2023-04-01T08:52:36;15.90;54.60
78647;DHT22;67961;43.460;3.762;2023-04-01T08:57:51;15.50;54.60
78647;DHT22;67961;43.460;3.762;2023-04-01T09:22:29;15.80;53.70
78647;DHT22;67961;43.460;3.762;2023-04-01T09:25:19;16.10;52.40
78647;DHT22;67961;43.460;3.762;2023-04-01T09:33:49;16.00;52.50
78647;DHT22;67961;43.460;3.762;2023-04-01T09:36:47;16.50;52.50
78647;DHT22;67961;43.460;3.762;2023-04-01T09:45:00;18.00;50.00
78647;DHT22;67961;43.460;3.762;2023-04-01T09:50:32;18.50;48.10
78647;DHT22;67961;43.460;3.762;2023-04-01T09:56:21;18.60;48.80
78647;DHT22;67961;43.460;3.762;2023-04-01T10:33:08;18.00;47.90
78647;DHT22;67961;43.460;3.762;2023-04-01T10:36:10;18.20;46.40
78647;DHT22;67961;43.460;3.762;2023-04-01T10:58:39;19.50;45.70
78647;DHT22;67961;43.460;3.762;2023-04-01T11:15:35;18.70;46.70
78647;DHT22;67961;43.460;3.762;2023-04-01T11:21:10;18.00;45.20
78647;DHT22;67961;43.460;3.762;2023-04-01T11:27:04;19.10;44.00
78647;DHT22;67961;43.460;3.762;2023-04-01T11:32:43;19.50;41.10
78647;DHT22;67961;43.460;3.762;2023-04-01T11:43:13;20.30;43.50
78647;DHT22;67961;43.460;3.762;2023-04-01T11:48:39;20.40;42.10
78647;DHT22;67961;43.460;3.762;2023-04-01T11:51:47;20.10;41.90
78647;DHT22;67961;43.460;3.762;2023-04-01T11:59:44;20.20;43.30
78647;DHT22;67961;43.460;3.762;2023-04-01T12:03:00;20.50;42.90
78647;DHT22;67961;43.460;3.762;2023-04-01T12:13:35;19.50;42.20
78647;DHT22;67961;43.460;3.762;2023-04-01T12:19:04;19.70;42.40
78647;DHT22;67961;43.460;3.762;2023-04-01T12:21:42;20.00;42.50
78647;DHT22;67961;43.460;3.762;2023-04-01T12:32:20;19.60;42.10
78647;DHT22;67961;43.460;3.762;2023-04-01T12:35:02;19.50;42.40
78647;DHT22;67961;43.460;3.762;2023-04-01T12:37:49;19.50;42.80
78647;DHT22;67961;43.460;3.762;2023-04-01T12:49:56;19.70;41.20
78647;DHT22;67961;43.460;3.762;2023-04-01T12:52:39;19.70;41.30
78647;DHT22;67961;43.460;3.762;2023-04-01T12:55:39;19.50;41.70
78647;DHT22;67961;43.460;3.762;2023-04-01T13:01:10;19.00;42.60
78647;DHT22;67961;43.460;3.762;2023-04-01T13:06:37;19.10;42.70
78647;DHT22;67961;43.460;3.762;2023-04-01T13:27:49;18.90;45.40
78647;DHT22;67961;43.460;3.762;2023-04-01T13:30:27;19.10;45.30
78647;DHT22;67961;43.460;3.762;2023-04-01T13:33:04;19.30;44.70
78647;DHT22;67961;43.460;3.762;2023-04-01T13:36:10;19.20;45.60
78647;DHT22;67961;43.460;3.762;2023-04-01T13:58:17;17.80;47.60
78647;DHT22;67961;43.460;3.762;2023-04-01T14:04:27;17.50;46.00
78647;DHT22;67961;43.460;3.762;2023-04-01T14:06:54;17.50;46.20
78647;DHT22;67961;43.460;3.762;2023-04-01T14:09:48;17.50;45.80
78647;DHT22;67961;43.460;3.762;2023-04-01T14:15:29;17.20;47.90
78647;DHT22;67961;43.460;3.762;2023-04-01T14:34:47;16.80;52.20
78647;DHT22;67961;43.460;3.762;2023-04-01T14:45:23;16.40;53.30
78647;DHT22;67961;43.460;3.762;2023-04-01T14:50:47;16.40;51.50
78647;DHT22;67961;43.460;3.762;2023-04-01T14:55:53;16.30;50.00
78647;DHT22;67961;43.460;3.762;2023-04-01T14:58:23;16.10;47.80
78647;DHT22;67961;43.460;3.762;2023-04-01T15:01:17;16.00;47.60
78647;DHT22;67961;43.460;3.762;2023-04-01T15:28:27;16.30;47.50
78647;DHT22;67961;43.460;3.762;2023-04-01T15:50:22;16.20;48.30
78647;DHT22;67961;43.460;3.762;2023-04-01T15:55:26;16.20;49.20
78647;DHT22;67961;43.460;3.762;2023-04-01T16:15:22;15.60;51.40
78647;DHT22;67961;43.460;3.762;2023-04-01T16:23:46;15.60;51.80
78647;DHT22;67961;43.460;3.762;2023-04-01T16:29:03;15.30;52.30
78647;DHT22;67961;43.460;3.762;2023-04-01T16:31:51;15.30;52.10
78647;DHT22;67961;43.460;3.762;2023-04-01T16:34:29;15.30;52.50
78647;DHT22;67961;43.460;3.762;2023-04-01T16:37:37;15.20;52.50
78647;DHT22;67961;43.460;3.762;2023-04-01T16:40:34;15.20;52.70
78647;DHT22;67961;43.460;3.762;2023-04-01T16:51:53;15.20;51.80
78647;DHT22;67961;43.460;3.762;2023-04-01T16:59:55;15.00;51.50
78647;DHT22;67961;43.460;3.762;2023-04-01T17:02:28;14.90;51.00
78647;DHT22;67961;43.460;3.762;2023-04-01T17:05:15;14.80;51.00
78647;DHT22;67961;43.460;3.762;2023-04-01T17:13:41;14.60;51.80
78647;DHT22;67961;43.460;3.762;2023-04-01T17:27:16;14.30;53.30
78647;DHT22;67961;43.460;3.762;2023-04-01T17:30:08;14.30;53.00
78647;DHT22;67961;43.460;3.762;2023-04-01T17:35:36;14.40;53.00
78647;DHT22;67961;43.460;3.762;2023-04-01T17:38:13;14.30;52.70
78647;DHT22;67961;43.460;3.762;2023-04-01T17:46:54;14.20;52.10
78647;DHT22;67961;43.460;3.762;2023-04-01T18:20:01;13.40;52.70
78647;DHT22;67961;43.460;3.762;2023-04-01T18:22:38;13.30;52.50
78647;DHT22;67961;43.460;3.762;2023-04-01T18:30:39;13.20;53.40
78647;DHT22;67961;43.460;3.762;2023-04-01T18:33:26;13.10;53.10
78647;DHT22;67961;43.460;3.762;2023-04-01T18:38:54;13.00;53.60
78647;DHT22;67961;43.460;3.762;2023-04-01T18:49:39;12.80;53.20
78647;DHT22;67961;43.460;3.762;2023-04-01T18:52:26;12.80;53.50
78647;DHT22;67961;43.460;3.762;2023-04-01T19:00:18;12.60;54.30
78647;DHT22;67961;43.460;3.762;2023-04-01T19:03:34;12.50;54.50
78647;DHT22;67961;43.460;3.762;2023-04-01T19:06:01;12.50;54.80
78647;DHT22;67961;43.460;3.762;2023-04-01T19:08:35;12.50;55.00
78647;DHT22;67961;43.460;3.762;2023-04-01T19:11:12;12.30;55.20
78647;DHT22;67961;43.460;3.762;2023-04-01T19:14:19;12.20;55.50
78647;DHT22;67961;43.460;3.762;2023-04-01T19:25:59;12.30;55.00
78647;DHT22;67961;43.460;3.762;2023-04-01T19:39:34;12.00;55.70
78647;DHT22;67961;43.460;3.762;2023-04-01T19:44:41;12.00;55.70
78647;DHT22;67961;43.460;3.762;2023-04-01T19:50:49;11.90;56.00
78647;DHT22;67961;43.460;3.762;2023-04-01T19:53:29;11.80;56.30
78647;DHT22;67961;43.460;3.762;2023-04-01T19:56:19;11.90;56.50
78647;DHT22;67961;43.460;3.762;2023-04-01T20:01:35;11.90;56.70
78647;DHT22;67961;43.460;3.762;2023-04-01T20:04:13;11.90;56.60
78647;DHT22;67961;43.460;3.762;2023-04-01T20:14:57;11.90;56.60
78647;DHT22;67961;43.460;3.762;2023-04-01T20:17:43;11.90;56.60
78647;DHT22;67961;43.460;3.762;2023-04-01T20:36:36;11.70;57.20
78647;DHT22;67961;43.460;3.762;2023-04-01T20:42:32;11.70;57.40
78647;DHT22;67961;43.460;3.762;2023-04-01T20:45:04;11.70;57.40
78647;DHT22;67961;43.460;3.762;2023-04-01T20:53:12;11.70;57.80
78647;DHT22;67961;43.460;3.762;2023-04-01T21:12:04;11.70;57.60
78647;DHT22;67961;43.460;3.762;2023-04-01T21:17:27;11.70;57.80
78647;DHT22;67961;43.460;3.762;2023-04-01T21:20:13;11.70;57.60
78647;DHT22;67961;43.460;3.762;2023-04-01T21:28:50;11.50;57.60
78647;DHT22;67961;43.460;3.762;2023-04-01T21:31:12;11.50;57.60
78647;DHT22;67961;43.460;3.762;2023-04-01T21:40:02;11.70;57.40
78647;DHT22;67961;43.460;3.762;2023-04-01T21:45:23;11.70;57.60
78647;DHT22;67961;43.460;3.762;2023-04-01T21:51:25;11.80;57.80
78647;DHT22;67961;43.460;3.762;2023-04-01T22:08:08;11.80;58.20
78647;DHT22;67961;43.460;3.762;2023-04-01T22:11:07;11.70;58.00
78647;DHT22;67961;43.460;3.762;2023-04-01T22:16:32;11.70;58.40
78647;DHT22;67961;43.460;3.762;2023-04-01T22:22:55;11.60;58.70
78647;DHT22;67961;43.460;3.762;2023-04-01T22:31:00;11.50;59.00
78647;DHT22;67961;43.460;3.762;2023-04-01T22:33:34;11.50;59.10
78647;DHT22;67961;43.460;3.762;2023-04-01T22:41:38;11.50;58.80
78647;DHT22;67961;43.460;3.762;2023-04-01T22:49:37;11.50;59.00
78647;DHT22;67961;43.460;3.762;2023-04-01T22:52:20;11.50;59.20
78647;DHT22;67961;43.460;3.762;2023-04-01T22:54:51;11.40;58.90
78647;DHT22;67961;43.460;3.762;2023-04-01T23:00:08;11.50;59.20
78647;DHT22;67961;43.460;3.762;2023-04-01T23:03:00;11.50;58.30
78647;DHT22;67961;43.460;3.762;2023-04-01T23:05:27;11.50;58.10
78647;DHT22;67961;43.460;3.762;2023-04-01T23:10:59;11.60;57.90
78647;DHT22;67961;43.460;3.762;2023-04-01T23:13:46;11.50;57.80
78647;DHT22;67961;43.460;3.762;2023-04-01T23:16:14;11.50;57.90
78647;DHT22;67961;43.460;3.762;2023-04-01T23:18:50;11.50;57.80
78647;DHT22;67961;43.460;3.762;2023-04-01T23:21:38;11.50;57.60
78647;DHT22;67961;43.460;3.762;2023-04-01T23:24:11;11.50;57.40
78647;DHT22;67961;43.460;3.762;2023-04-01T23:27:08;11.50;57.30
78647;DHT22;67961;43.460;3.762;2023-04-01T23:29:37;11.50;57.30
78647;DHT22;67961;43.460;3.762;2023-04-01T23:32:16;11.50;57.10
78647;DHT22;67961;43.460;3.762;2023-04-01T23:34:48;11.50;57.30
78647;DHT22;67961;43.460;3.762;2023-04-01T23:37:16;11.50;57.50
78647;DHT22;67961;43.460;3.762;2023-04-01T23:39:45;11.50;57.40
78647;DHT22;67961;43.460;3.762;2023-04-01T23:44:43;11.40;57.60
78647;DHT22;67961;43.460;3.762;2023-04-01T23:47:16;11.50;57.20
78647;DHT22;67961;43.460;3.762;2023-04-01T23:49:46;11.40;57.80
78647;DHT22;67961;43.460;3.762;2023-04-01T23:52:20;11.40;57.70
78647;DHT22;67961;43.460;3.762;2023-04-01T23:54:55;11.40;57.60
78647;DHT22;67961;43.460;3.762;2023-04-01T23:57:33;11.40;57.80
